sensor_id;sensor_type;location;lat;lon;timestamp;pressure;altitude;pressure_sealevel;temperature;humidity
16793;BME280;8513;42.662;23.350;2023-02-11T00:00:30;96558.06;;;0.04;44.81
16793;BME280;8513;42.662;23.350;2023-02-11T00:02:55;96562.53;;;-0.01;44.41
16793;BME280;8513;42.662;23.350;2023-02-11T00:05:21;96570.25;;;0.01;44.43
16793;BME280;8513;42.662;23.350;2023-02-11T00:07:46;96568.78;;;-0.08;44.42
16793;BME280;8513;42.662;23.350;2023-02-11T00:10:11;96562.75;;;-0.07;44.61
16793;BME280;8513;42.662;23.350;2023-02-11T00:12:37;96559.50;;;-0.14;44.39
16793;BME280;8513;42.662;23.350;2023-02-11T00:15:04;96562.03;;;-0.12;44.68
16793;BME280;8513;42.662;23.350;2023-02-11T00:17:31;96564.88;;;-0.20;44.64
16793;BME280;8513;42.662;23.350;2023-02-11T00:19:56;96566.47;;;-0.16;44.71
16793;BME280;8513;42.662;23.350;2023-02-11T00:22:22;96568.47;;;-0.24;44.38
16793;BME280;8513;42.662;23.350;2023-02-11T00:24:47;96565.22;;;-0.32;44.77
16793;BME280;8513;42.662;23.350;2023-02-11T00:27:13;96565.16;;;-0.29;44.84
16793;BME280;8513;42.662;23.350;2023-02-11T00:29:39;96561.97;;;-0.37;44.47
16793;BME280;8513;42.662;23.350;2023-02-11T00:32:05;96570.41;;;-0.32;44.36
16793;BME280;8513;42.662;23.350;2023-02-11T00:34:31;96563.16;;;-0.48;44.54
16793;BME280;8513;42.662;23.350;2023-02-11T00:36:57;96556.09;;;-0.42;44.63
16793;BME280;8513;42.662;23.350;2023-02-11T00:39:23;96561.00;;;-0.35;43.97
16793;BME280;8513;42.662;23.350;2023-02-11T00:41:48;96564.72;;;-0.43;44.46
16793;BME280;8513;42.662;23.350;2023-02-11T00:44:14;96562.16;;;-0.43;44.24
16793;BME280;8513;42.662;23.350;2023-02-11T00:46:39;96554.34;;;-0.42;44.27
16793;BME280;8513;42.662;23.350;2023-02-11T00:49:04;96557.03;;;-0.45;44.15
16793;BME280;8513;42.662;23.350;2023-02-11T00:51:30;96555.28;;;-0.45;44.26
16793;BME280;8513;42.662;23.350;2023-02-11T00:53:55;96551.00;;;-0.46;44.19
16793;BME280;8513;42.662;23.350;2023-02-11T00:56:21;96552.72;;;-0.45;44.24
16793;BME280;8513;42.662;23.350;2023-02-11T00:58:47;96551.00;;;-0.46;44.11
16793;BME280;8513;42.662;23.350;2023-02-11T01:01:13;96545.38;;;-0.58;44.19
16793;BME280;8513;42.662;23.350;2023-02-11T01:03:39;96551.09;;;-0.49;43.94
16793;BME280;8513;42.662;23.350;2023-02-11T01:06:06;96552.94;;;-0.52;43.96
16793;BME280;8513;42.662;23.350;2023-02-11T01:08:32;96548.84;;;-0.59;44.17
16793;BME280;8513;42.662;23.350;2023-02-11T01:11:06;96544.44;;;-0.56;44.27
16793;BME280;8513;42.662;23.350;2023-02-11T01:13:34;96541.16;;;-0.61;44.55
16793;BME280;8513;42.662;23.350;2023-02-11T01:16:00;96536.09;;;-0.64;43.95
16793;BME280;8513;42.662;23.350;2023-02-11T01:18:26;96533.91;;;-0.78;44.20
16793;BME280;8513;42.662;23.350;2023-02-11T01:20:52;96543.88;;;-0.65;44.56
16793;BME280;8513;42.662;23.350;2023-02-11T01:23:18;96539.94;;;-0.77;44.57
16793;BME280;8513;42.662;23.350;2023-02-11T01:25:44;96539.84;;;-0.74;44.47
16793;BME280;8513;42.662;23.350;2023-02-11T01:28:16;96533.50;;;-0.64;44.30
16793;BME280;8513;42.662;23.350;2023-02-11T01:30:41;96545.63;;;-0.66;44.42
16793;BME280;8513;42.662;23.350;2023-02-11T01:33:07;96536.31;;;-0.72;44.17
16793;BME280;8513;42.662;23.350;2023-02-11T01:35:32;96539.97;;;-0.79;44.35
16793;BME280;8513;42.662;23.350;2023-02-11T01:37:58;96534.19;;;-0.87;44.64
16793;BME280;8513;42.662;23.350;2023-02-11T01:40:23;96531.16;;;-1.01;44.86
16793;BME280;8513;42.662;23.350;2023-02-11T01:42:49;96533.34;;;-0.87;44.57
16793;BME280;8513;42.662;23.350;2023-02-11T01:48:04;96525.91;;;-0.98;44.71
16793;BME280;8513;42.662;23.350;2023-02-11T01:50:30;96535.47;;;-1.02;44.89
16793;BME280;8513;42.662;23.350;2023-02-11T01:52:56;96533.13;;;-1.09;45.12
16793;BME280;8513;42.662;23.350;2023-02-11T01:55:41;96532.09;;;-1.04;44.90
16793;BME280;8513;42.662;23.350;2023-02-11T01:58:27;96530.66;;;-1.14;45.48
16793;BME280;8513;42.662;23.350;2023-02-11T02:00:53;96533.88;;;-1.06;45.10
16793;BME280;8513;42.662;23.350;2023-02-11T02:03:21;96528.81;;;-1.09;45.24
16793;BME280;8513;42.662;23.350;2023-02-11T02:11:15;96523.53;;;-1.06;44.89
16793;BME280;8513;42.662;23.350;2023-02-11T02:13:41;96531.00;;;-1.26;45.40
16793;BME280;8513;42.662;23.350;2023-02-11T02:16:11;96528.78;;;-1.39;46.00
16793;BME280;8513;42.662;23.350;2023-02-11T02:40:14;96527.22;;;-1.44;45.91
16793;BME280;8513;42.662;23.350;2023-02-11T02:42:41;96523.91;;;-1.49;45.59
16793;BME280;8513;42.662;23.350;2023-02-11T02:45:10;96524.38;;;-1.35;45.61
16793;BME280;8513;42.662;23.350;2023-02-11T02:47:36;96525.28;;;-1.36;45.42
16793;BME280;8513;42.662;23.350;2023-02-11T02:50:03;96524.56;;;-1.43;46.04
16793;BME280;8513;42.662;23.350;2023-02-11T02:52:32;96528.81;;;-1.40;45.69
16793;BME280;8513;42.662;23.350;2023-02-11T03:08:54;96535.19;;;-1.53;45.52
16793;BME280;8513;42.662;23.350;2023-02-11T03:11:22;96531.88;;;-1.59;45.77
16793;BME280;8513;42.662;23.350;2023-02-11T03:13:49;96530.88;;;-1.53;45.54
16793;BME280;8513;42.662;23.350;2023-02-11T03:16:18;96527.34;;;-1.49;45.20
16793;BME280;8513;42.662;23.350;2023-02-11T03:21:59;96535.47;;;-1.64;45.59
16793;BME280;8513;42.662;23.350;2023-02-11T03:24:30;96526.63;;;-1.56;45.67
16793;BME280;8513;42.662;23.350;2023-02-11T03:27:01;96531.16;;;-1.64;46.02
16793;BME280;8513;42.662;23.350;2023-02-11T03:32:07;96527.56;;;-1.58;45.97
16793;BME280;8513;42.662;23.350;2023-02-11T03:34:55;96523.22;;;-1.56;45.50
16793;BME280;8513;42.662;23.350;2023-02-11T03:37:34;96525.13;;;-1.63;45.88
16793;BME280;8513;42.662;23.350;2023-02-11T03:40:15;96526.25;;;-1.73;46.38
16793;BME280;8513;42.662;23.350;2023-02-11T03:42:47;96528.66;;;-1.67;46.13
16793;BME280;8513;42.662;23.350;2023-02-11T03:45:16;96526.19;;;-1.71;45.96
16793;BME280;8513;42.662;23.350;2023-02-11T03:47:47;96529.03;;;-1.81;46.16
16793;BME280;8513;42.662;23.350;2023-02-11T03:50:15;96526.84;;;-1.96;46.71
16793;BME280;8513;42.662;23.350;2023-02-11T03:52:42;96522.66;;;-2.00;46.79
16793;BME280;8513;42.662;23.350;2023-02-11T03:55:12;96520.72;;;-1.92;46.64
16793;BME280;8513;42.662;23.350;2023-02-11T03:57:40;96513.94;;;-1.96;46.79
16793;BME280;8513;42.662;23.350;2023-02-11T04:00:05;96519.84;;;-1.91;46.86
16793;BME280;8513;42.662;23.350;2023-02-11T04:02:35;96515.56;;;-1.92;46.55
16793;BME280;8513;42.662;23.350;2023-02-11T04:05:02;96515.41;;;-1.86;46.74
16793;BME280;8513;42.662;23.350;2023-02-11T04:07:27;96519.66;;;-1.83;46.38
16793;BME280;8513;42.662;23.350;2023-02-11T04:10:18;96526.56;;;-1.85;46.47
16793;BME280;8513;42.662;23.350;2023-02-11T04:12:43;96518.72;;;-1.81;46.53
16793;BME280;8513;42.662;23.350;2023-02-11T04:15:09;96517.09;;;-1.85;46.77
16793;BME280;8513;42.662;23.350;2023-02-11T04:17:35;96518.84;;;-1.85;46.27
16793;BME280;8513;42.662;23.350;2023-02-11T04:20:00;96523.31;;;-1.92;46.71
16793;BME280;8513;42.662;23.350;2023-02-11T04:22:26;96518.94;;;-1.90;46.44
16793;BME280;8513;42.662;23.350;2023-02-11T04:24:51;96518.25;;;-1.96;46.71
16793;BME280;8513;42.662;23.350;2023-02-11T04:27:16;96518.84;;;-1.85;46.25
16793;BME280;8513;42.662;23.350;2023-02-11T04:29:42;96518.88;;;-1.87;46.48
16793;BME280;8513;42.662;23.350;2023-02-11T04:32:09;96527.63;;;-1.92;46.32
16793;BME280;8513;42.662;23.350;2023-02-11T04:34:35;96517.16;;;-1.86;46.60
16793;BME280;8513;42.662;23.350;2023-02-11T04:37:00;96515.72;;;-1.98;46.73
16793;BME280;8513;42.662;23.350;2023-02-11T04:39:26;96521.53;;;-2.24;46.87
16793;BME280;8513;42.662;23.350;2023-02-11T04:41:51;96510.81;;;-2.07;46.74
16793;BME280;8513;42.662;23.350;2023-02-11T04:44:17;96500.75;;;-2.18;47.08
16793;BME280;8513;42.662;23.350;2023-02-11T04:46:42;96504.81;;;-2.08;47.07
16793;BME280;8513;42.662;23.350;2023-02-11T04:49:13;96507.97;;;-1.98;47.17
16793;BME280;8513;42.662;23.350;2023-02-11T04:51:39;96503.63;;;-1.96;47.16
16793;BME280;8513;42.662;23.350;2023-02-11T04:54:05;96510.56;;;-1.98;47.06
16793;BME280;8513;42.662;23.350;2023-02-11T04:56:30;96506.19;;;-1.94;47.02
16793;BME280;8513;42.662;23.350;2023-02-11T04:58:56;96509.91;;;-2.06;47.27
16793;BME280;8513;42.662;23.350;2023-02-11T05:01:21;96508.38;;;-2.13;47.47
16793;BME280;8513;42.662;23.350;2023-02-11T05:03:46;96512.09;;;-2.25;47.92
16793;BME280;8513;42.662;23.350;2023-02-11T05:06:12;96514.28;;;-2.44;48.06
16793;BME280;8513;42.662;23.350;2023-02-11T05:08:39;96517.19;;;-2.59;48.69
16793;BME280;8513;42.662;23.350;2023-02-11T05:11:05;96508.84;;;-2.69;48.67
16793;BME280;8513;42.662;23.350;2023-02-11T05:13:30;96513.25;;;-2.74;49.46
16793;BME280;8513;42.662;23.350;2023-02-11T05:15:56;96509.81;;;-2.73;49.02
16793;BME280;8513;42.662;23.350;2023-02-11T05:18:22;96509.09;;;-2.80;49.15
16793;BME280;8513;42.662;23.350;2023-02-11T05:20:47;96502.19;;;-2.78;49.01
16793;BME280;8513;42.662;23.350;2023-02-11T05:23:13;96505.78;;;-2.85;49.54
16793;BME280;8513;42.662;23.350;2023-02-11T05:25:38;96508.53;;;-2.93;49.54
16793;BME280;8513;42.662;23.350;2023-02-11T05:28:04;96507.81;;;-2.99;50.05
16793;BME280;8513;42.662;23.350;2023-02-11T05:30:30;96515.56;;;-3.01;50.57
16793;BME280;8513;42.662;23.350;2023-02-11T05:32:56;96515.72;;;-3.08;50.40
16793;BME280;8513;42.662;23.350;2023-02-11T05:35:22;96512.22;;;-3.04;50.33
16793;BME280;8513;42.662;23.350;2023-02-11T05:37:47;96502.78;;;-3.05;50.85
16793;BME280;8513;42.662;23.350;2023-02-11T05:40:13;96506.94;;;-2.98;50.50
16793;BME280;8513;42.662;23.350;2023-02-11T05:42:38;96509.50;;;-2.98;50.57
16793;BME280;8513;42.662;23.350;2023-02-11T05:45:04;96508.50;;;-2.91;49.96
16793;BME280;8513;42.662;23.350;2023-02-11T05:47:30;96507.53;;;-2.85;50.12
16793;BME280;8513;42.662;23.350;2023-02-11T05:49:56;96507.81;;;-2.99;50.25
16793;BME280;8513;42.662;23.350;2023-02-11T05:52:22;96511.34;;;-3.03;50.32
16793;BME280;8513;42.662;23.350;2023-02-11T05:54:48;96513.25;;;-3.13;50.83
16793;BME280;8513;42.662;23.350;2023-02-11T05:57:13;96522.47;;;-3.03;50.84
16793;BME280;8513;42.662;23.350;2023-02-11T05:59:39;96512.97;;;-2.99;50.58
16793;BME280;8513;42.662;23.350;2023-02-11T06:02:05;96518.06;;;-2.98;50.65
16793;BME280;8513;42.662;23.350;2023-02-11T06:04:32;96515.41;;;-2.93;50.24
16793;BME280;8513;42.662;23.350;2023-02-11T06:06:58;96523.94;;;-2.91;50.40
16793;BME280;8513;42.662;23.350;2023-02-11T06:09:24;96529.13;;;-2.94;50.36
16793;BME280;8513;42.662;23.350;2023-02-11T06:11:49;96517.97;;;-2.93;50.21
16793;BME280;8513;42.662;23.350;2023-02-11T06:14:15;96519.97;;;-3.07;50.57
16793;BME280;8513;42.662;23.350;2023-02-11T06:16:40;96524.00;;;-2.94;50.26
16793;BME280;8513;42.662;23.350;2023-02-11T06:19:06;96532.59;;;-2.94;50.02
16793;BME280;8513;42.662;23.350;2023-02-11T06:21:31;96531.84;;;-3.00;50.31
16793;BME280;8513;42.662;23.350;2023-02-11T06:23:57;96529.09;;;-2.91;50.02
16793;BME280;8513;42.662;23.350;2023-02-11T06:26:22;96528.00;;;-2.81;50.12
16793;BME280;8513;42.662;23.350;2023-02-11T06:28:48;96531.22;;;-2.73;49.72
16793;BME280;8513;42.662;23.350;2023-02-11T06:31:14;96530.31;;;-2.70;49.54
16793;BME280;8513;42.662;23.350;2023-02-11T06:33:40;96523.31;;;-2.63;49.47
16793;BME280;8513;42.662;23.350;2023-02-11T06:36:26;96537.00;;;-2.61;49.15
16793;BME280;8513;42.662;23.350;2023-02-11T06:38:51;96528.66;;;-2.73;49.71
16793;BME280;8513;42.662;23.350;2023-02-11T06:41:17;96517.75;;;-2.84;50.01
16793;BME280;8513;42.662;23.350;2023-02-11T06:43:47;96528.97;;;-2.86;50.11
16793;BME280;8513;42.662;23.350;2023-02-11T06:46:12;96535.16;;;-2.94;50.21
16793;BME280;8513;42.662;23.350;2023-02-11T06:48:38;96534.03;;;-2.83;50.11
16793;BME280;8513;42.662;23.350;2023-02-11T06:51:06;96530.41;;;-2.73;50.41
16793;BME280;8513;42.662;23.350;2023-02-11T06:53:41;96534.16;;;-2.88;50.24
16793;BME280;8513;42.662;23.350;2023-02-11T06:56:13;96533.81;;;-2.73;50.28
16793;BME280;8513;42.662;23.350;2023-02-11T06:58:39;96540.53;;;-2.66;50.06
16793;BME280;8513;42.662;23.350;2023-02-11T07:01:06;96537.94;;;-2.66;49.75
16793;BME280;8513;42.662;23.350;2023-02-11T07:03:34;96537.59;;;-2.50;49.64
16793;BME280;8513;42.662;23.350;2023-02-11T07:06:01;96532.78;;;-2.28;49.31
16793;BME280;8513;42.662;23.350;2023-02-11T07:08:27;96538.50;;;-2.15;48.51
16793;BME280;8513;42.662;23.350;2023-02-11T07:10:52;96523.97;;;-2.18;48.17
16793;BME280;8513;42.662;23.350;2023-02-11T07:13:18;96533.28;;;-2.14;48.77
16793;BME280;8513;42.662;23.350;2023-02-11T07:15:43;96519.28;;;-2.02;48.08
16793;BME280;8513;42.662;23.350;2023-02-11T07:18:08;96521.75;;;-1.97;48.05
16793;BME280;8513;42.662;23.350;2023-02-11T07:20:36;96517.16;;;-1.88;48.06
16793;BME280;8513;42.662;23.350;2023-02-11T07:23:01;96521.75;;;-1.65;47.61
16793;BME280;8513;42.662;23.350;2023-02-11T07:25:27;96521.00;;;-1.68;47.18
16793;BME280;8513;42.662;23.350;2023-02-11T07:27:52;96508.56;;;-1.54;47.23
16793;BME280;8513;42.662;23.350;2023-02-11T07:30:18;96506.63;;;-1.47;46.85
16793;BME280;8513;42.662;23.350;2023-02-11T07:32:43;96502.25;;;-1.44;46.53
16793;BME280;8513;42.662;23.350;2023-02-11T07:35:09;96506.00;;;-1.24;46.63
16793;BME280;8513;42.662;23.350;2023-02-11T07:37:34;96503.69;;;-1.04;46.04
16793;BME280;8513;42.662;23.350;2023-02-11T07:40:00;96493.59;;;-1.12;45.88
16793;BME280;8513;42.662;23.350;2023-02-11T07:42:26;96492.25;;;-1.25;46.56
16793;BME280;8513;42.662;23.350;2023-02-11T07:44:51;96504.25;;;-1.24;46.33
16793;BME280;8513;42.662;23.350;2023-02-11T07:47:17;96495.66;;;-0.95;45.96
16793;BME280;8513;42.662;23.350;2023-02-11T07:49:42;96490.22;;;-1.14;46.32
16793;BME280;8513;42.662;23.350;2023-02-11T07:52:08;96488.91;;;-0.99;45.95
16793;BME280;8513;42.662;23.350;2023-02-11T07:54:33;96493.81;;;-0.90;45.77
16793;BME280;8513;42.662;23.350;2023-02-11T07:57:02;96495.22;;;-0.79;46.05
16793;BME280;8513;42.662;23.350;2023-02-11T07:59:27;96493.47;;;-0.79;45.49
16793;BME280;8513;42.662;23.350;2023-02-11T08:01:52;96492.91;;;-0.60;45.33
16793;BME280;8513;42.662;23.350;2023-02-11T08:04:18;96495.41;;;-0.57;44.82
16793;BME280;8513;42.662;23.350;2023-02-11T08:06:48;96488.03;;;-0.43;44.43
16793;BME280;8513;42.662;23.350;2023-02-11T08:09:15;96480.03;;;-0.35;44.39
16793;BME280;8513;42.662;23.350;2023-02-11T08:11:43;96484.28;;;-0.33;44.12
16793;BME280;8513;42.662;23.350;2023-02-11T08:14:10;96491.03;;;-0.29;44.05
16793;BME280;8513;42.662;23.350;2023-02-11T08:16:37;96487.88;;;-0.37;44.13
16793;BME280;8513;42.662;23.350;2023-02-11T08:19:14;96482.13;;;-0.20;43.84
16793;BME280;8513;42.662;23.350;2023-02-11T08:21:40;96467.09;;;-0.09;43.58
16793;BME280;8513;42.662;23.350;2023-02-11T08:24:06;96480.28;;;-0.16;43.96
16793;BME280;8513;42.662;23.350;2023-02-11T08:26:32;96476.72;;;-0.12;44.20
16793;BME280;8513;42.662;23.350;2023-02-11T08:29:00;96473.53;;;-0.20;43.92
16793;BME280;8513;42.662;23.350;2023-02-11T08:46:30;96479.69;;;0.27;43.63
16793;BME280;8513;42.662;23.350;2023-02-11T08:48:55;96486.13;;;0.40;43.46
16793;BME280;8513;42.662;23.350;2023-02-11T09:04:24;96480.63;;;0.73;43.40
16793;BME280;8513;42.662;23.350;2023-02-11T09:06:49;96474.44;;;0.77;43.25
16793;BME280;8513;42.662;23.350;2023-02-11T09:09:15;96475.34;;;0.76;43.36
16793;BME280;8513;42.662;23.350;2023-02-11T09:11:42;96481.03;;;0.86;43.06
16793;BME280;8513;42.662;23.350;2023-02-11T09:14:16;96481.63;;;0.93;43.01
16793;BME280;8513;42.662;23.350;2023-02-11T09:16:42;96465.09;;;0.97;43.03
16793;BME280;8513;42.662;23.350;2023-02-11T09:19:09;96461.59;;;0.98;42.58
16793;BME280;8513;42.662;23.350;2023-02-11T09:21:34;96467.53;;;0.78;42.68
16793;BME280;8513;42.662;23.350;2023-02-11T09:24:00;96462.31;;;1.01;41.74
16793;BME280;8513;42.662;23.350;2023-02-11T09:26:28;96464.72;;;1.06;41.87
16793;BME280;8513;42.662;23.350;2023-02-11T09:39:48;96447.81;;;1.63;39.72
16793;BME280;8513;42.662;23.350;2023-02-11T09:44:51;96431.78;;;1.53;39.76
16793;BME280;8513;42.662;23.350;2023-02-11T09:47:32;96431.88;;;1.72;39.23
16793;BME280;8513;42.662;23.350;2023-02-11T09:50:09;96418.50;;;1.82;39.49
16793;BME280;8513;42.662;23.350;2023-02-11T09:55:41;96423.38;;;1.89;38.74
16793;BME280;8513;42.662;23.350;2023-02-11T09:58:13;96410.03;;;1.98;38.32
16793;BME280;8513;42.662;23.350;2023-02-11T10:00:46;96405.41;;;2.05;38.36
16793;BME280;8513;42.662;23.350;2023-02-11T10:03:30;96394.38;;;2.00;38.52
16793;BME280;8513;42.662;23.350;2023-02-11T10:06:39;96396.66;;;2.08;38.33
16793;BME280;8513;42.662;23.350;2023-02-11T10:23:13;96368.53;;;2.57;36.37
16793;BME280;8513;42.662;23.350;2023-02-11T10:25:45;96350.56;;;2.52;35.27
16793;BME280;8513;42.662;23.350;2023-02-11T10:28:16;96348.66;;;2.56;35.13
16793;BME280;8513;42.662;23.350;2023-02-11T10:35:54;96319.06;;;2.60;35.16
16793;BME280;8513;42.662;23.350;2023-02-11T10:38:20;96314.63;;;2.81;35.04
16793;BME280;8513;42.662;23.350;2023-02-11T10:40:46;96306.81;;;2.81;35.20
16793;BME280;8513;42.662;23.350;2023-02-11T10:43:15;96299.66;;;2.67;36.01
16793;BME280;8513;42.662;23.350;2023-02-11T10:45:49;96292.34;;;2.94;34.85
16793;BME280;8513;42.662;23.350;2023-02-11T10:48:44;96294.50;;;3.21;33.85
16793;BME280;8513;42.662;23.350;2023-02-11T10:56:45;96281.97;;;3.29;34.26
16793;BME280;8513;42.662;23.350;2023-02-11T10:59:29;96268.94;;;3.46;34.61
16793;BME280;8513;42.662;23.350;2023-02-11T11:01:57;96276.88;;;3.61;34.11
16793;BME280;8513;42.662;23.350;2023-02-11T11:07:22;96269.22;;;3.75;32.64
16793;BME280;8513;42.662;23.350;2023-02-11T11:12:46;96260.81;;;3.52;33.76
16793;BME280;8513;42.662;23.350;2023-02-11T11:15:16;96260.38;;;3.62;32.91
16793;BME280;8513;42.662;23.350;2023-02-11T11:17:43;96258.22;;;3.70;33.32
16793;BME280;8513;42.662;23.350;2023-02-11T11:20:19;96256.19;;;4.08;33.61
16793;BME280;8513;42.662;23.350;2023-02-11T11:22:46;96245.09;;;4.05;33.56
16793;BME280;8513;42.662;23.350;2023-02-11T11:25:40;96247.81;;;4.35;32.10
16793;BME280;8513;42.662;23.350;2023-02-11T11:28:23;96251.78;;;4.42;31.85
16793;BME280;8513;42.662;23.350;2023-02-11T11:30:51;96248.34;;;4.57;32.22
16793;BME280;8513;42.662;23.350;2023-02-11T11:33:32;96244.03;;;4.56;31.80
16793;BME280;8513;42.662;23.350;2023-02-11T11:36:00;96240.25;;;4.62;31.27
16793;BME280;8513;42.662;23.350;2023-02-11T11:38:28;96236.03;;;4.75;31.58
16793;BME280;8513;42.662;23.350;2023-02-11T11:43:39;96231.09;;;4.71;31.17
16793;BME280;8513;42.662;23.350;2023-02-11T11:46:04;96229.47;;;4.84;31.25
16793;BME280;8513;42.662;23.350;2023-02-11T11:48:40;96220.72;;;4.85;31.29
16793;BME280;8513;42.662;23.350;2023-02-11T11:51:10;96230.50;;;5.12;31.36
16793;BME280;8513;42.662;23.350;2023-02-11T11:54:02;96221.47;;;4.87;31.52
16793;BME280;8513;42.662;23.350;2023-02-11T11:56:33;96214.00;;;5.11;30.88
16793;BME280;8513;42.662;23.350;2023-02-11T11:59:02;96214.44;;;5.34;30.32
16793;BME280;8513;42.662;23.350;2023-02-11T12:10:30;96194.41;;;5.34;29.87
16793;BME280;8513;42.662;23.350;2023-02-11T12:13:30;96192.69;;;5.78;29.66
16793;BME280;8513;42.662;23.350;2023-02-11T12:27:50;96154.69;;;11.81;22.14
16793;BME280;8513;42.662;23.350;2023-02-11T12:30:27;96148.72;;;14.14;19.22
16793;BME280;8513;42.662;23.350;2023-02-11T12:33:03;96147.00;;;15.14;16.92
16793;BME280;8513;42.662;23.350;2023-02-11T12:43:39;96128.06;;;17.80;13.90
16793;BME280;8513;42.662;23.350;2023-02-11T12:46:33;96123.78;;;19.20;13.37
16793;BME280;8513;42.662;23.350;2023-02-11T12:51:57;96122.72;;;17.88;14.00
16793;BME280;8513;42.662;23.350;2023-02-11T12:54:45;96119.91;;;18.37;13.98
16793;BME280;8513;42.662;23.350;2023-02-11T12:57:24;96110.13;;;17.66;13.80
16793;BME280;8513;42.662;23.350;2023-02-11T13:00:16;96113.28;;;17.45;14.62
16793;BME280;8513;42.662;23.350;2023-02-11T13:03:05;96115.63;;;17.39;14.90
16793;BME280;8513;42.662;23.350;2023-02-11T13:08:26;96102.59;;;20.90;11.71
16793;BME280;8513;42.662;23.350;2023-02-11T13:10:55;96100.31;;;21.08;11.43
16793;BME280;8513;42.662;23.350;2023-02-11T13:13:48;96099.22;;;21.39;11.11
16793;BME280;8513;42.662;23.350;2023-02-11T13:27:00;96089.25;;;22.59;10.33
16793;BME280;8513;42.662;23.350;2023-02-11T13:37:52;96088.00;;;23.36;9.71
16793;BME280;8513;42.662;23.350;2023-02-11T13:42:52;96079.75;;;23.77;9.14
16793;BME280;8513;42.662;23.350;2023-02-11T13:47:56;96075.09;;;24.38;8.87
16793;BME280;8513;42.662;23.350;2023-02-11T13:50:23;96067.47;;;24.28;8.59
16793;BME280;8513;42.662;23.350;2023-02-11T13:52:57;96065.16;;;25.22;8.29
16793;BME280;8513;42.662;23.350;2023-02-11T13:55:24;96061.78;;;24.56;8.30
16793;BME280;8513;42.662;23.350;2023-02-11T14:06:21;96054.69;;;19.33;10.92
16793;BME280;8513;42.662;23.350;2023-02-11T14:16:32;96053.00;;;11.69;17.56
16793;BME280;8513;42.662;23.350;2023-02-11T14:18:59;96050.59;;;10.84;18.73
16793;BME280;8513;42.662;23.350;2023-02-11T14:27:07;96046.13;;;9.09;21.04
16793;BME280;8513;42.662;23.350;2023-02-11T14:32:47;96036.91;;;8.80;21.91
16793;BME280;8513;42.662;23.350;2023-02-11T14:41:23;96047.72;;;8.65;22.70
16793;BME280;8513;42.662;23.350;2023-02-11T14:43:56;96045.91;;;8.54;23.65
16793;BME280;8513;42.662;23.350;2023-02-11T14:46:23;96044.66;;;7.99;24.55
16793;BME280;8513;42.662;23.350;2023-02-11T14:48:52;96045.00;;;8.18;23.99
16793;BME280;8513;42.662;23.350;2023-02-11T14:51:27;96044.56;;;8.95;23.18
16793;BME280;8513;42.662;23.350;2023-02-11T14:56:37;96046.38;;;14.15;17.81
16793;BME280;8513;42.662;23.350;2023-02-11T14:59:15;96044.09;;;15.27;16.58
16793;BME280;8513;42.662;23.350;2023-02-11T15:01:45;96030.94;;;16.04;15.83
16793;BME280;8513;42.662;23.350;2023-02-11T15:06:52;96031.06;;;17.35;14.51
16793;BME280;8513;42.662;23.350;2023-02-11T15:09:21;96033.22;;;16.74;14.37
16793;BME280;8513;42.662;23.350;2023-02-11T15:11:52;96029.72;;;15.98;14.97
16793;BME280;8513;42.662;23.350;2023-02-11T15:14:25;96029.28;;;15.16;15.96
16793;BME280;8513;42.662;23.350;2023-02-11T15:16:53;96036.03;;;14.21;16.55
16793;BME280;8513;42.662;23.350;2023-02-11T15:19:38;96029.44;;;12.86;17.99
16793;BME280;8513;42.662;23.350;2023-02-11T15:22:23;96023.22;;;11.17;19.75
16793;BME280;8513;42.662;23.350;2023-02-11T15:24:58;96025.22;;;9.86;21.25
16793;BME280;8513;42.662;23.350;2023-02-11T15:27:23;96014.78;;;9.52;22.02
16793;BME280;8513;42.662;23.350;2023-02-11T15:29:50;96018.34;;;9.06;22.71
16793;BME280;8513;42.662;23.350;2023-02-11T15:32:18;96021.81;;;8.49;23.77
16793;BME280;8513;42.662;23.350;2023-02-11T15:34:46;96014.75;;;8.14;24.18
16793;BME280;8513;42.662;23.350;2023-02-11T15:37:26;96019.78;;;7.80;25.08
16793;BME280;8513;42.662;23.350;2023-02-11T15:40:10;96022.63;;;7.40;26.34
16793;BME280;8513;42.662;23.350;2023-02-11T15:42:36;96016.69;;;7.13;26.19
16793;BME280;8513;42.662;23.350;2023-02-11T15:48:15;96030.00;;;6.71;27.08
16793;BME280;8513;42.662;23.350;2023-02-11T15:50:42;96027.38;;;6.84;27.39
16793;BME280;8513;42.662;23.350;2023-02-11T15:53:26;96028.97;;;6.74;27.77
16793;BME280;8513;42.662;23.350;2023-02-11T15:56:06;96018.75;;;6.44;28.07
16793;BME280;8513;42.662;23.350;2023-02-11T15:58:38;96031.00;;;6.43;28.18
16793;BME280;8513;42.662;23.350;2023-02-11T16:01:04;96025.03;;;6.41;28.54
16793;BME280;8513;42.662;23.350;2023-02-11T16:03:31;96029.91;;;6.33;28.46
16793;BME280;8513;42.662;23.350;2023-02-11T16:06:26;96032.66;;;5.90;29.14
16793;BME280;8513;42.662;23.350;2023-02-11T16:09:04;96035.25;;;5.63;29.81
16793;BME280;8513;42.662;23.350;2023-02-11T16:11:33;96029.38;;;5.32;30.55
16793;BME280;8513;42.662;23.350;2023-02-11T16:14:00;96031.50;;;4.97;30.76
16793;BME280;8513;42.662;23.350;2023-02-11T16:16:28;96021.34;;;5.21;30.80
16793;BME280;8513;42.662;23.350;2023-02-11T16:18:58;96020.91;;;5.14;30.99
16793;BME280;8513;42.662;23.350;2023-02-11T16:21:39;96018.75;;;5.06;31.43
16793;BME280;8513;42.662;23.350;2023-02-11T16:24:07;96009.91;;;5.09;30.99
16793;BME280;8513;42.662;23.350;2023-02-11T16:26:40;96021.09;;;5.11;31.06
16793;BME280;8513;42.662;23.350;2023-02-11T16:29:14;96033.28;;;4.96;31.37
16793;BME280;8513;42.662;23.350;2023-02-11T16:31:45;96037.72;;;4.80;31.74
16793;BME280;8513;42.662;23.350;2023-02-11T16:36:37;96031.69;;;4.94;30.80
16793;BME280;8513;42.662;23.350;2023-02-11T16:39:03;96028.31;;;4.63;30.96
16793;BME280;8513;42.662;23.350;2023-02-11T16:41:28;96027.69;;;4.74;30.52
16793;BME280;8513;42.662;23.350;2023-02-11T16:43:56;96031.31;;;4.71;30.19
16793;BME280;8513;42.662;23.350;2023-02-11T16:46:21;96039.44;;;4.51;30.63
16793;BME280;8513;42.662;23.350;2023-02-11T16:48:47;96027.56;;;4.61;30.58
16793;BME280;8513;42.662;23.350;2023-02-11T16:51:12;96028.59;;;4.58;30.95
16793;BME280;8513;42.662;23.350;2023-02-11T16:53:38;96030.09;;;4.62;30.94
16793;BME280;8513;42.662;23.350;2023-02-11T16:56:04;96027.56;;;4.61;30.81
16793;BME280;8513;42.662;23.350;2023-02-11T16:58:29;96025.91;;;4.60;31.10
16793;BME280;8513;42.662;23.350;2023-02-11T17:00:54;96037.38;;;4.41;31.33
16793;BME280;8513;42.662;23.350;2023-02-11T17:03:23;96039.31;;;4.38;30.65